createdAt,value
2018-05-18T00:00:06.596Z,73.30
2018-05-18T00:02:34.866Z,73.40
2018-05-18T00:05:02.392Z,72.80
2018-05-18T00:07:29.885Z,72.60
2018-05-18T00:09:57.394Z,72.70
2018-05-18T00:12:25.503Z,72.80
2018-05-18T00:14:52.984Z,72.90
2018-05-18T00:17:21.244Z,73.00
2018-05-18T00:19:50.196Z,72.90
2018-05-18T00:22:17.694Z,73.10
2018-05-18T00:24:46.140Z,73.00
2018-05-18T00:27:14.392Z,73.20
2018-05-18T00:29:42.745Z,73.10
2018-05-18T00:32:11.009Z,73.70
2018-05-18T00:34:39.254Z,73.40
2018-05-18T00:37:06.742Z,73.40
2018-05-18T00:39:35.015Z,73.30
2018-05-18T00:42:02.496Z,73.30
2018-05-18T00:44:29.993Z,73.30
2018-05-18T00:46:57.477Z,73.30
2018-05-18T00:49:24.984Z,73.30
2018-05-18T00:51:52.934Z,73.30
2018-05-18T00:54:20.447Z,73.20
2018-05-18T00:56:47.921Z,73.40
2018-05-18T00:59:15.418Z,73.40
2018-05-18T01:01:42.922Z,73.40
2018-05-18T01:04:10.413Z,73.60
2018-05-18T01:06:38.690Z,74.00
2018-05-18T01:09:06.937Z,74.10
2018-05-18T01:11:34.439Z,74.10
2018-05-18T01:14:01.921Z,73.20
2018-05-18T01:16:29.434Z,72.60
2018-05-18T01:18:57.677Z,73.80
2018-05-18T01:21:26.009Z,73.80
2018-05-18T01:23:54.097Z,74.10
2018-05-18T01:26:21.580Z,73.80
2018-05-18T01:28:49.069Z,73.90
2018-05-18T01:31:16.553Z,73.90
2018-05-18T01:33:44.034Z,74.00
2018-05-18T01:36:11.512Z,73.90
2018-05-18T01:38:38.995Z,73.80
2018-05-18T01:41:06.518Z,73.70
2018-05-18T01:43:34.031Z,73.60
2018-05-18T01:46:02.261Z,74.20
2018-05-18T01:48:29.747Z,74.10
2018-05-18T01:50:58.011Z,74.30
2018-05-18T01:53:26.304Z,74.10
2018-05-18T01:55:54.553Z,74.10
2018-05-18T01:58:22.045Z,74.00
2018-05-18T02:00:50.307Z,73.90
2018-05-18T02:03:18.590Z,74.10
2018-05-18T02:05:46.860Z,74.20
2018-05-18T02:08:15.105Z,74.90
2018-05-18T02:10:42.602Z,74.40
2018-05-18T02:13:10.851Z,74.70
2018-05-18T02:15:38.343Z,74.70
2018-05-18T02:18:06.630Z,74.70
2018-05-18T02:20:34.829Z,74.60
2018-05-18T02:23:02.298Z,74.90
2018-05-18T02:25:29.795Z,74.60
2018-05-18T02:27:58.055Z,74.40
2018-05-18T02:30:26.013Z,74.40
2018-05-18T02:32:53.503Z,74.40
2018-05-18T02:35:21.770Z,74.00
2018-05-18T02:37:50.077Z,74.60
2018-05-18T02:40:17.575Z,73.90
2018-05-18T02:42:45.052Z,74.00
2018-05-18T02:45:13.254Z,73.80
2018-05-18T02:47:40.745Z,73.50
2018-05-18T02:50:08.224Z,73.80
2018-05-18T02:52:35.783Z,73.50
2018-05-18T02:55:03.261Z,73.50
2018-05-18T02:57:30.731Z,73.80
2018-05-18T02:59:58.990Z,73.00
2018-05-18T03:02:27.084Z,73.30
2018-05-18T03:04:55.315Z,72.20
2018-05-18T03:07:22.824Z,72.20
2018-05-18T03:09:50.332Z,71.60
2018-05-18T03:12:17.805Z,71.30
2018-05-18T03:14:45.750Z,71.20
2018-05-18T03:17:13.227Z,71.20
2018-05-18T03:19:40.764Z,70.80
2018-05-18T03:22:08.277Z,70.40
2018-05-18T03:24:36.554Z,71.20
2018-05-18T03:27:04.112Z,71.10
2018-05-18T03:29:32.379Z,71.10
2018-05-18T03:32:00.642Z,71.00
2018-05-18T03:34:28.129Z,71.00
2018-05-18T03:36:56.430Z,70.30
2018-05-18T03:39:23.951Z,70.20
2018-05-18T03:41:52.233Z,69.70
2018-05-18T03:44:20.480Z,69.80
2018-05-18T03:46:47.978Z,69.80
2018-05-18T03:49:15.497Z,69.60
2018-05-18T03:51:42.990Z,70.00
2018-05-18T03:54:10.484Z,70.00
2018-05-18T03:56:38.036Z,69.70
2018-05-18T03:59:05.576Z,69.70
2018-05-18T04:01:45.016Z,69.90
2018-05-18T04:04:24.147Z,69.70
2018-05-18T04:07:03.481Z,69.80
2018-05-18T04:09:30.973Z,69.30
2018-05-18T04:11:58.446Z,69.50
2018-05-18T04:14:25.915Z,69.50
2018-05-18T04:16:54.117Z,69.60
2018-05-18T04:19:21.585Z,69.60
2018-05-18T04:21:49.097Z,70.00
2018-05-18T04:24:17.154Z,69.70
2018-05-18T04:26:44.652Z,69.70
2018-05-18T04:29:12.888Z,68.40
2018-05-18T04:31:40.369Z,68.40
2018-05-18T04:34:08.672Z,67.60
2018-05-18T04:36:36.251Z,67.50
2018-05-18T04:39:03.889Z,67.30
2018-05-18T04:41:31.465Z,67.10
2018-05-18T04:43:58.965Z,67.20
2018-05-18T04:46:26.435Z,67.70
2018-05-18T04:48:53.942Z,67.60
2018-05-18T04:51:21.516Z,67.30
2018-05-18T04:53:49.027Z,67.50
2018-05-18T04:56:17.265Z,66.70
2018-05-18T04:58:44.803Z,66.60
2018-05-18T05:01:13.139Z,65.90
2018-05-18T05:03:41.405Z,64.70
2018-05-18T05:06:09.668Z,64.50
2018-05-18T05:08:37.174Z,65.40
2018-05-18T05:11:04.648Z,65.00
2018-05-18T05:13:32.148Z,63.50
2018-05-18T05:15:59.673Z,63.50
2018-05-18T05:18:27.297Z,63.40
2018-05-18T05:20:54.893Z,63.00
2018-05-18T05:23:22.398Z,63.10
2018-05-18T05:25:50.649Z,62.50
2018-05-18T05:28:18.152Z,62.40
2018-05-18T05:30:45.649Z,62.10
2018-05-18T05:33:13.159Z,62.60
2018-05-18T05:35:41.394Z,62.10
2018-05-18T05:38:08.912Z,62.10
2018-05-18T05:40:36.507Z,61.90
2018-05-18T05:43:04.089Z,60.60
2018-05-18T05:45:32.374Z,60.00
2018-05-18T05:48:00.636Z,61.50
2018-05-18T05:50:28.143Z,60.80
2018-05-18T05:52:55.670Z,60.40
2018-05-18T05:55:24.498Z,60.60
2018-05-18T05:57:51.996Z,59.80
2018-05-18T06:00:19.499Z,59.50
2018-05-18T06:02:47.000Z,59.40
2018-05-18T06:05:14.505Z,59.10
2018-05-18T06:07:42.010Z,59.10
2018-05-18T06:10:09.518Z,58.40
2018-05-18T06:12:37.040Z,58.30
2018-05-18T06:15:05.116Z,58.20
2018-05-18T06:17:32.725Z,58.30
2018-05-18T06:20:00.674Z,57.90
2018-05-18T06:22:28.938Z,56.80
2018-05-18T06:24:57.215Z,56.60
2018-05-18T06:27:25.527Z,56.90
2018-05-18T06:29:53.092Z,56.90
2018-05-18T06:32:20.573Z,56.70
2018-05-18T06:34:48.231Z,56.90
2018-05-18T06:37:15.574Z,56.70
2018-05-18T06:39:43.248Z,56.40
2018-05-18T06:42:11.035Z,57.00
2018-05-18T06:44:38.559Z,57.00
2018-05-18T06:47:06.658Z,57.00
2018-05-18T06:49:34.165Z,56.40
2018-05-18T06:52:01.671Z,55.30
2018-05-18T06:54:29.221Z,55.60
2018-05-18T06:56:56.802Z,55.60
2018-05-18T06:59:24.567Z,54.90
2018-05-18T07:01:52.074Z,55.10
2018-05-18T07:04:19.589Z,55.00
2018-05-18T07:06:47.867Z,55.70
2018-05-18T07:09:16.128Z,54.70
2018-05-18T07:11:43.648Z,54.60
2018-05-18T07:14:11.146Z,54.40
2018-05-18T07:16:38.738Z,53.30
2018-05-18T07:19:06.604Z,54.90
2018-05-18T07:21:34.811Z,52.90
2018-05-18T07:24:02.312Z,54.40
2018-05-18T07:26:30.579Z,52.80
2018-05-18T07:28:58.083Z,52.80
2018-05-18T07:31:25.625Z,53.20
2018-05-18T07:33:53.928Z,52.80
2018-05-18T07:36:21.442Z,52.80
2018-05-18T07:38:50.486Z,52.70
2018-05-18T07:41:18.603Z,52.70
2018-05-18T07:43:46.246Z,52.00
2018-05-18T07:46:15.478Z,52.00
2018-05-18T07:48:44.031Z,52.00
2018-05-18T07:51:11.553Z,52.00
2018-05-18T07:53:40.746Z,52.50
2018-05-18T07:56:14.427Z,52.50
2018-05-18T07:58:42.870Z,51.80
2018-05-18T08:01:11.128Z,51.80
2018-05-18T08:03:39.594Z,51.40
2018-05-18T08:06:08.086Z,50.70
2018-05-18T08:08:36.374Z,50.70
2018-05-18T08:11:03.906Z,50.10
2018-05-18T08:13:32.126Z,50.40
2018-05-18T08:15:59.797Z,50.60
2018-05-18T08:18:28.086Z,50.30
2018-05-18T08:20:56.584Z,50.30
2018-05-18T08:26:18.132Z,50.00
2018-05-18T08:28:58.455Z,51.80
2018-05-18T08:31:28.662Z,50.20
2018-05-18T08:33:57.041Z,50.20
2018-05-18T08:36:25.278Z,49.90
2018-05-18T08:38:52.781Z,50.00
2018-05-18T08:41:21.433Z,49.70
2018-05-18T08:43:50.763Z,49.20
2018-05-18T08:46:18.404Z,49.10
2018-05-18T08:48:47.254Z,47.70
2018-05-18T08:51:14.799Z,48.30
2018-05-18T08:53:43.308Z,47.60
2018-05-18T08:56:10.864Z,47.60
2018-05-18T08:58:38.354Z,47.40
2018-05-18T09:01:05.909Z,48.80
2018-05-18T09:03:34.367Z,50.20
2018-05-18T09:06:02.032Z,50.20
2018-05-18T09:08:29.635Z,50.20
2018-05-18T09:10:57.217Z,51.10
2018-05-18T09:13:26.250Z,50.70
2018-05-18T09:15:53.800Z,50.70
2018-05-18T09:18:21.307Z,49.90
2018-05-18T09:20:48.808Z,49.40
2018-05-18T09:23:16.294Z,48.80
2018-05-18T09:25:44.382Z,49.10
2018-05-18T09:28:11.886Z,48.50
2018-05-18T09:30:39.369Z,47.80
2018-05-18T09:33:06.846Z,47.10
2018-05-18T09:35:36.650Z,47.60
2018-05-18T09:38:04.154Z,47.80
2018-05-18T09:40:32.435Z,47.20
2018-05-18T09:43:01.207Z,47.40
2018-05-18T09:45:29.235Z,47.40
2018-05-18T09:47:56.919Z,46.70
2018-05-18T09:50:24.514Z,47.70
2018-05-18T09:52:52.816Z,48.50
2018-05-18T09:55:20.340Z,48.50
2018-05-18T09:57:48.514Z,48.70
2018-05-18T10:00:17.276Z,48.50
2018-05-18T10:02:44.764Z,48.40
2018-05-18T10:05:13.051Z,48.00
2018-05-18T10:07:41.385Z,48.20
2018-05-18T10:10:08.913Z,48.20
2018-05-18T10:12:36.423Z,48.40
2018-05-18T10:15:04.695Z,48.00
2018-05-18T10:17:32.813Z,47.70
2018-05-18T10:20:00.304Z,49.20
2018-05-18T10:22:27.848Z,49.60
2018-05-18T10:24:55.421Z,49.40
2018-05-18T10:27:23.005Z,48.50
2018-05-18T10:29:50.702Z,48.30
2018-05-18T10:32:19.087Z,48.00
2018-05-18T10:34:46.600Z,48.30
2018-05-18T10:37:14.106Z,48.70
2018-05-18T10:39:41.622Z,48.00
2018-05-18T10:42:09.132Z,48.20
2018-05-18T10:44:36.623Z,48.30
2018-05-18T10:47:04.122Z,48.10
2018-05-18T10:49:31.705Z,46.90
2018-05-18T10:51:59.964Z,46.30
2018-05-18T10:54:28.095Z,46.20
2018-05-18T10:56:55.610Z,46.10
2018-05-18T10:59:23.111Z,47.90
2018-05-18T11:01:50.625Z,46.60
2018-05-18T11:04:18.119Z,47.40
2018-05-18T11:06:45.613Z,46.70
2018-05-18T11:09:13.901Z,46.70
2018-05-18T11:11:41.384Z,46.70
2018-05-18T11:14:08.985Z,45.50
2018-05-18T11:16:36.459Z,45.60
2018-05-18T11:19:04.697Z,45.50
2018-05-18T11:21:32.199Z,45.50
2018-05-18T11:24:00.451Z,46.40
2018-05-18T11:26:28.727Z,48.30
2018-05-18T11:28:57.065Z,47.70
2018-05-18T11:31:25.339Z,48.10
2018-05-18T11:33:52.822Z,48.10
2018-05-18T11:36:20.316Z,46.40
2018-05-18T11:38:48.602Z,43.20
2018-05-18T11:41:16.099Z,43.20
2018-05-18T11:43:43.587Z,44.50
2018-05-18T11:46:11.089Z,45.50
2018-05-18T11:48:38.580Z,46.60
2018-05-18T11:51:06.073Z,47.90
2018-05-18T11:53:34.337Z,46.80
2018-05-18T11:56:02.647Z,46.30
2018-05-18T11:58:30.215Z,46.10
2018-05-18T12:00:57.724Z,46.70
2018-05-18T12:03:25.264Z,45.40
2018-05-18T12:05:53.463Z,46.60
2018-05-18T12:08:21.015Z,47.90
2018-05-18T12:10:48.454Z,47.90
2018-05-18T12:13:15.935Z,46.20
2018-05-18T12:15:43.888Z,46.20
2018-05-18T12:18:11.389Z,46.50
2018-05-18T12:20:39.648Z,47.30
2018-05-18T12:23:07.897Z,48.00
2018-05-18T12:25:35.929Z,48.00
2018-05-18T12:28:03.412Z,47.50
2018-05-18T12:30:30.903Z,47.20
2018-05-18T12:32:59.048Z,47.70
2018-05-18T12:35:26.937Z,47.70
2018-05-18T12:37:54.470Z,46.70
2018-05-18T12:40:21.950Z,47.10
2018-05-18T12:42:49.456Z,46.50
2018-05-18T12:45:16.946Z,45.40
2018-05-18T12:47:44.461Z,45.80
2018-05-18T12:50:11.955Z,46.70
2018-05-18T12:52:39.454Z,46.30
2018-05-18T12:55:08.324Z,45.80
2018-05-18T12:57:35.892Z,45.50
2018-05-18T13:00:04.165Z,46.50
2018-05-18T13:02:31.758Z,46.50
2018-05-18T13:04:59.208Z,46.90
2018-05-18T13:07:27.582Z,45.80
2018-05-18T13:09:55.864Z,45.90
2018-05-18T13:12:24.114Z,45.50
2018-05-18T13:14:51.616Z,45.50
2018-05-18T13:17:19.110Z,45.60
2018-05-18T13:19:46.633Z,46.30
2018-05-18T13:22:14.124Z,46.00
2018-05-18T13:24:41.616Z,46.00
2018-05-18T13:27:09.891Z,45.60
2018-05-18T13:29:38.209Z,46.10
2018-05-18T13:32:05.748Z,46.10
2018-05-18T13:34:33.258Z,45.10
2018-05-18T13:37:00.762Z,45.30
2018-05-18T13:39:28.258Z,46.00
2018-05-18T13:41:55.772Z,45.90
2018-05-18T13:44:24.040Z,45.60
2018-05-18T13:46:52.296Z,44.80
2018-05-18T13:49:19.793Z,44.80
2018-05-18T13:51:47.346Z,45.40
2018-05-18T13:54:15.648Z,45.80
2018-05-18T13:56:43.284Z,45.80
2018-05-18T13:59:11.645Z,45.00
2018-05-18T14:01:39.922Z,46.60
2018-05-18T14:04:08.164Z,46.20
2018-05-18T14:06:35.673Z,46.10
2018-05-18T14:09:03.199Z,45.80
2018-05-18T14:11:30.711Z,46.50
2018-05-18T14:13:59.169Z,45.20
2018-05-18T14:16:26.808Z,45.80
2018-05-18T14:18:55.064Z,44.40
2018-05-18T14:21:22.636Z,44.30
2018-05-18T14:23:50.131Z,45.60
2018-05-18T14:26:17.650Z,45.60
2018-05-18T14:28:45.131Z,45.20
2018-05-18T14:31:13.388Z,44.60
2018-05-18T14:33:40.962Z,44.60
2018-05-18T14:36:08.400Z,45.10
2018-05-18T14:38:35.924Z,43.90
2018-05-18T14:41:03.483Z,43.70
2018-05-18T14:43:31.016Z,43.70
2018-05-18T14:45:58.491Z,44.90
2018-05-18T14:48:26.012Z,43.20
2018-05-18T14:50:54.324Z,44.80
2018-05-18T14:53:21.813Z,44.70
2018-05-18T14:55:49.333Z,44.70
2018-05-18T14:58:17.593Z,44.80
2018-05-18T15:00:45.710Z,44.70
2018-05-18T15:03:14.105Z,44.10
2018-05-18T15:05:41.776Z,44.50
2018-05-18T15:08:10.659Z,44.70
2018-05-18T15:10:38.163Z,44.70
2018-05-18T15:13:05.655Z,46.60
2018-05-18T15:15:33.151Z,46.10
2018-05-18T15:18:01.404Z,45.80
2018-05-18T15:20:28.894Z,45.80
2018-05-18T15:22:56.389Z,46.30
2018-05-18T15:25:23.871Z,45.80
2018-05-18T15:27:51.357Z,44.30
2018-05-18T15:30:19.594Z,44.50
2018-05-18T15:32:47.085Z,44.50
2018-05-18T15:35:15.347Z,45.40
2018-05-18T15:37:42.830Z,45.40
2018-05-18T15:40:10.362Z,45.60
2018-05-18T15:42:37.941Z,46.20
2018-05-18T15:45:05.339Z,47.00
2018-05-18T15:47:32.838Z,47.10
2018-05-18T15:50:00.989Z,46.50
2018-05-18T15:52:28.494Z,46.60
2018-05-18T15:54:56.760Z,46.90
2018-05-18T15:57:25.056Z,47.60
2018-05-18T15:59:53.326Z,47.40
2018-05-18T16:02:22.301Z,47.50
2018-05-18T16:04:50.577Z,46.70
2018-05-18T16:07:18.846Z,46.60
2018-05-18T16:09:46.361Z,46.50
2018-05-18T16:12:13.849Z,46.60
2018-05-18T16:14:41.356Z,47.20
2018-05-18T16:17:08.848Z,47.00
2018-05-18T16:19:36.343Z,47.50
2018-05-18T16:22:04.612Z,47.80
2018-05-18T16:24:33.068Z,47.20
2018-05-18T16:27:00.549Z,47.50
2018-05-18T16:29:28.073Z,47.50
2018-05-18T16:31:55.582Z,48.10
2018-05-18T16:34:23.855Z,47.10
2018-05-18T16:36:52.108Z,46.70
2018-05-18T16:39:19.615Z,46.70
2018-05-18T16:41:47.147Z,47.10
2018-05-18T16:44:15.441Z,46.40
2018-05-18T16:46:42.937Z,46.30
2018-05-18T16:49:10.423Z,46.10
2018-05-18T16:51:37.939Z,46.40
2018-05-18T16:54:06.217Z,45.30
2018-05-18T16:56:34.500Z,44.60
2018-05-18T16:59:02.012Z,44.60
2018-05-18T17:01:29.534Z,44.90
2018-05-18T17:03:57.042Z,44.20
2018-05-18T17:06:24.530Z,43.80
2018-05-18T17:08:52.108Z,43.00
2018-05-18T17:11:19.603Z,42.70
2018-05-18T17:13:47.869Z,42.10
2018-05-18T17:16:16.119Z,41.90
2018-05-18T17:18:43.600Z,41.80
2018-05-18T17:21:12.362Z,43.00
2018-05-18T17:23:39.881Z,43.00
2018-05-18T17:26:07.510Z,42.50
2018-05-18T17:28:36.487Z,41.90
2018-05-18T17:31:04.003Z,41.80
2018-05-18T17:33:31.504Z,40.90
2018-05-18T17:36:00.727Z,39.80
2018-05-18T17:38:29.003Z,40.30
2018-05-18T17:40:57.263Z,40.40
2018-05-18T17:43:24.763Z,40.40
2018-05-18T17:45:53.056Z,40.50
2018-05-18T17:48:20.625Z,40.50
2018-05-18T17:50:48.245Z,40.60
2018-05-18T17:53:15.750Z,40.50
2018-05-18T17:55:43.258Z,40.40
2018-05-18T17:58:10.752Z,40.70
2018-05-18T18:00:38.233Z,41.50
2018-05-18T18:03:05.756Z,41.60
2018-05-18T18:05:33.243Z,41.60
2018-05-18T18:08:00.778Z,42.20
2018-05-18T18:10:28.265Z,42.90
2018-05-18T18:12:55.767Z,43.10
2018-05-18T18:15:23.246Z,42.50
2018-05-18T18:17:50.811Z,43.80
2018-05-18T18:20:18.316Z,45.10
2018-05-18T18:22:46.592Z,47.40
2018-05-18T18:25:14.830Z,48.60
2018-05-18T18:27:42.306Z,48.30
2018-05-18T18:30:10.271Z,49.60
2018-05-18T18:32:37.769Z,50.40
2018-05-18T18:35:06.053Z,51.90
2018-05-18T18:37:33.539Z,51.90
2018-05-18T18:40:01.042Z,52.20
2018-05-18T18:42:29.342Z,53.10
2018-05-18T18:44:56.837Z,53.10
2018-05-18T18:47:24.327Z,53.60
2018-05-18T18:49:51.902Z,54.20
2018-05-18T18:52:20.155Z,54.50
2018-05-18T18:54:47.641Z,54.50
2018-05-18T18:57:15.914Z,55.20
2018-05-18T18:59:44.168Z,55.60
2018-05-18T19:02:12.326Z,55.50
2018-05-18T19:04:39.821Z,56.00
2018-05-18T19:07:08.080Z,56.50
2018-05-18T19:09:35.576Z,56.50
2018-05-18T19:12:03.082Z,56.80
2018-05-18T19:14:30.653Z,57.10
2018-05-18T19:16:58.141Z,57.50
2018-05-18T19:19:25.660Z,57.80
2018-05-18T19:21:53.157Z,57.80
2018-05-18T19:24:20.793Z,58.40
2018-05-18T19:26:48.234Z,59.30
2018-05-18T19:29:15.740Z,59.20
2018-05-18T19:31:43.250Z,59.60
2018-05-18T19:34:11.290Z,59.60
2018-05-18T19:36:38.962Z,60.00
2018-05-18T19:39:07.054Z,61.40
2018-05-18T19:41:35.396Z,61.40
2018-05-18T19:44:03.637Z,61.70
2018-05-18T19:46:31.941Z,62.20
2018-05-18T19:48:59.484Z,62.20
2018-05-18T19:51:26.949Z,62.60
2018-05-18T19:53:55.077Z,63.00
2018-05-18T19:56:22.554Z,62.90
2018-05-18T19:58:50.821Z,63.40
2018-05-18T20:01:19.088Z,63.40
2018-05-18T20:03:46.581Z,63.40
2018-05-18T20:06:14.074Z,63.40
2018-05-18T20:08:41.580Z,63.50
2018-05-18T20:11:12.549Z,63.80
2018-05-18T20:13:40.077Z,63.80
2018-05-18T20:16:08.363Z,64.00
2018-05-18T20:18:36.684Z,63.90
2018-05-18T20:21:04.168Z,63.80
2018-05-18T20:23:31.643Z,63.60
2018-05-18T20:25:59.920Z,63.50
2018-05-18T20:28:28.626Z,63.30
2018-05-18T20:30:56.121Z,63.30
2018-05-18T20:33:23.609Z,63.50
2018-05-18T20:35:51.116Z,63.50
2018-05-18T20:38:18.708Z,63.90
2018-05-18T20:40:46.144Z,63.90
2018-05-18T20:43:13.651Z,64.20
2018-05-18T20:45:41.942Z,65.00
2018-05-18T20:48:10.211Z,65.00
2018-05-18T20:50:38.463Z,65.20
2018-05-18T20:53:05.983Z,65.20
2018-05-18T20:55:33.452Z,65.60
2018-05-18T20:58:00.944Z,65.90
2018-05-18T21:00:28.926Z,66.40
2018-05-18T21:02:57.156Z,67.30
2018-05-18T21:05:24.675Z,67.20
2018-05-18T21:07:52.191Z,67.80
2018-05-18T21:10:19.694Z,68.40
2018-05-18T21:12:47.172Z,68.50
2018-05-18T21:15:14.705Z,68.70
2018-05-18T21:17:42.329Z,68.80
2018-05-18T21:20:09.854Z,68.80
2018-05-18T21:22:37.371Z,69.20
2018-05-18T21:25:05.628Z,69.90
2018-05-18T21:27:33.130Z,69.80
2018-05-18T21:30:00.605Z,70.30
2018-05-18T21:32:28.099Z,70.60
2018-05-18T21:34:56.459Z,70.70
2018-05-18T21:37:24.038Z,70.90
2018-05-18T21:39:51.642Z,71.10
2018-05-18T21:42:19.165Z,71.40
2018-05-18T21:44:47.494Z,72.10
2018-05-18T21:47:14.995Z,72.00
2018-05-18T21:49:43.269Z,72.90
2018-05-18T21:52:10.765Z,73.00
2018-05-18T21:54:38.263Z,73.20
2018-05-18T21:57:05.782Z,73.20
2018-05-18T21:59:33.855Z,74.50
2018-05-18T22:02:01.353Z,74.60
2018-05-18T22:04:28.833Z,74.90
2018-05-18T22:06:57.125Z,75.20
2018-05-18T22:09:25.433Z,75.60
2018-05-18T22:11:53.049Z,75.60
2018-05-18T22:14:20.551Z,75.90
2018-05-18T22:16:48.084Z,75.90
2018-05-18T22:19:15.609Z,76.70
2018-05-18T22:21:43.925Z,76.90
2018-05-18T22:24:11.411Z,77.30
2018-05-18T22:26:38.920Z,77.70
2018-05-18T22:29:07.622Z,78.50
2018-05-18T22:31:35.115Z,78.40
2018-05-18T22:34:02.604Z,78.50
2018-05-18T22:36:30.099Z,78.80
2018-05-18T22:38:57.608Z,79.30
2018-05-18T22:41:25.117Z,80.00
2018-05-18T22:43:52.591Z,80.50
2018-05-18T22:46:20.867Z,80.80
2018-05-18T22:48:48.331Z,81.30
2018-05-18T22:51:15.805Z,81.70
2018-05-18T22:53:44.060Z,82.30
2018-05-18T22:56:11.543Z,82.30
2018-05-18T22:58:39.502Z,82.50
2018-05-18T23:01:06.979Z,82.70
2018-05-18T23:03:34.511Z,83.30
2018-05-18T23:06:01.978Z,83.50
2018-05-18T23:08:29.507Z,84.00
2018-05-18T23:10:57.007Z,84.00
2018-05-18T23:13:24.501Z,84.10
2018-05-18T23:15:52.741Z,84.50
2018-05-18T23:18:20.241Z,84.50
2018-05-18T23:20:48.462Z,84.70
2018-05-18T23:23:16.535Z,84.90
2018-05-18T23:25:44.023Z,85.30
2018-05-18T23:28:11.513Z,85.60
2018-05-18T23:30:38.998Z,86.60
2018-05-18T23:33:06.487Z,85.60
2018-05-18T23:35:34.021Z,85.80
2018-05-18T23:38:01.516Z,85.90
2018-05-18T23:40:29.825Z,86.40
2018-05-18T23:42:57.296Z,86.40
2018-05-18T23:45:24.806Z,86.60
2018-05-18T23:47:53.671Z,87.50
2018-05-18T23:50:21.255Z,87.30
2018-05-18T23:52:48.748Z,87.50
2018-05-18T23:55:16.260Z,87.80
2018-05-18T23:57:43.884Z,88.10
